Terminal Aerodrome Forecast
Issued by NWS

Home | Current Version | Previous Version | Text Only | Print | Product List | Glossary On
Versions: 1 2 3 4 5 6 7 8 9 10 11 12 13 14 15 16 17 18 19 20 21 22 23
000
FTUS41 KPBZ 041300 AAA
TAFLBE
TAF AMD
KLBE 041312Z 0413/0512 25005KT 2SM -SN BKN008 OVC012
     FM041800 32008KT 2SM -SN BR OVC007
     FM050300 32009KT 5SM -SN BR OVC015
     FM050900 34006KT P6SM OVC015=

USA.gov is the U.S. government's official web portal to all federal, state and local government web resources and services.